Time;durP1;ratioP1;P1;durP2;ratioP2;P2;SDS_P1;SDS_P2;PMS_P1;PMS_P2;Temp;Humidity;BMP_temperature;BMP_pressure;BME280_temperature;BME280_humidity;BME280_pressure;Samples;Min_cycle;Max_cycle;Signal;HPM_P1;HPM_P2
2022/05/22 00:01:32;;;;;;;5.07;2.30;;;;;;;23.83;36.61;99153.53;5042640;28;20640;-38
2022/05/22 00:03:58;;;;;;;4.10;2.38;;;;;;;23.25;37.82;99161.19;5050019;28;20044;-37
2022/05/22 00:06:23;;;;;;;4.60;2.40;;;;;;;23.54;37.56;99165.50;5049434;28;20041;-37
2022/05/22 00:08:49;;;;;;;4.28;2.30;;;;;;;23.65;37.42;99156.03;5049645;28;20437;-37
2022/05/22 00:11:14;;;;;;;5.80;2.40;;;;;;;23.36;38.19;99159.06;5049560;28;20112;-37
2022/05/22 00:13:40;;;;;;;4.70;2.28;;;;;;;23.28;38.41;99157.88;5049616;28;20649;-37
2022/05/22 00:18:49;;;;;;;5.78;2.40;;;;;;;23.39;38.82;99153.84;5049911;28;20621;-37
2022/05/22 00:21:14;;;;;;;4.45;2.38;;;;;;;23.48;38.26;99147.72;5049679;28;20473;-37
2022/05/22 00:23:43;;;;;;;4.80;2.60;;;;;;;23.37;39.43;99150.63;5050024;28;20029;-37
2022/05/22 00:26:09;;;;;;;4.95;2.50;;;;;;;23.39;39.06;99151.13;5049751;28;20060;-38
2022/05/22 00:28:34;;;;;;;4.68;2.55;;;;;;;23.55;38.89;99143.50;5049378;28;20044;-38
2022/05/22 00:30:59;;;;;;;4.90;2.70;;;;;;;23.70;39.42;99142.34;5049288;28;20523;-37
2022/05/22 00:33:27;;;;;;;3.05;2.35;;;;;;;23.62;38.98;99137.63;5049547;28;20036;-37
2022/05/22 00:35:53;;;;;;;3.40;2.67;;;;;;;23.77;39.60;99137.28;5039513;28;20022;-37
2022/05/22 00:38:18;;;;;;;3.35;2.60;;;;;;;23.80;38.95;99135.94;5029218;28;20369;-38
2022/05/22 00:40:44;;;;;;;3.35;2.38;;;;;;;23.79;39.10;99124.25;5029508;28;20115;-38
2022/05/22 00:43:26;;;;;;;4.07;2.47;;;;;;;24.00;38.62;99130.00;5029702;28;20033;-38
2022/05/22 00:45:51;;;;;;;3.65;2.60;;;;;;;24.09;38.79;99134.72;5029549;28;20037;-37
2022/05/22 00:48:17;;;;;;;5.32;2.78;;;;;;;24.08;38.77;99136.63;5029004;28;20029;-38
2022/05/22 00:50:42;;;;;;;9.18;2.95;;;;;;;24.03;39.29;99135.94;5029797;28;20025;-38
2022/05/22 00:53:08;;;;;;;5.03;2.60;;;;;;;24.19;39.31;99131.75;5033143;28;20041;-38
2022/05/22 00:55:34;;;;;;;3.25;2.50;;;;;;;24.14;39.49;99127.25;5033523;28;20029;-38
2022/05/22 00:58:06;;;;;;;6.38;2.97;;;;;;;24.20;39.53;99127.94;5032896;28;20456;-38
2022/05/22 01:00:35;;;;;;;5.05;2.70;;;;;;;24.35;39.65;99124.00;5032723;28;20087;-38
2022/05/22 01:05:51;;;;;;;4.22;2.70;;;;;;;24.32;40.29;99127.38;5032779;28;20128;-38
2022/05/22 01:08:17;;;;;;;4.32;2.60;;;;;;;24.39;40.10;99127.75;5032514;28;20349;-38
2022/05/22 01:10:46;;;;;;;3.20;2.70;;;;;;;24.51;40.08;99125.28;5032799;28;20474;-38
2022/05/22 01:13:14;;;;;;;4.78;2.60;;;;;;;24.62;39.54;99130.44;5032886;28;20128;-38
2022/05/22 01:15:40;;;;;;;4.10;2.83;;;;;;;24.59;39.88;99118.28;5032341;28;20033;-38
2022/05/22 01:18:05;;;;;;;4.82;2.85;;;;;;;24.33;40.60;99113.47;5031767;28;20048;-38
2022/05/22 01:20:31;;;;;;;4.30;2.75;;;;;;;24.35;40.67;99113.16;5032372;28;20033;-38
2022/05/22 01:22:56;;;;;;;3.95;2.85;;;;;;;24.37;40.93;99105.50;5033515;28;20096;-38
2022/05/22 01:25:22;;;;;;;4.15;2.95;;;;;;;24.29;40.55;99103.50;5033527;28;20470;-37
2022/05/22 01:27:48;;;;;;;3.47;2.63;;;;;;;24.29;40.76;99104.31;5032839;28;20448;-37
2022/05/22 01:30:21;;;;;;;4.20;2.90;;;;;;;24.33;40.69;99108.03;5032857;28;20108;-38
2022/05/22 01:32:49;;;;;;;4.47;2.95;;;;;;;24.21;40.95;99107.78;5032798;28;20033;-38
2022/05/22 01:35:18;;;;;;;4.30;2.75;;;;;;;24.15;41.29;99109.81;5038084;28;20129;-37
2022/05/22 01:37:45;;;;;;;3.10;2.80;;;;;;;24.24;40.55;99096.31;5052707;28;20025;-37
2022/05/22 01:40:11;;;;;;;6.35;3.00;;;;;;;24.20;40.79;99087.97;5052735;28;20021;-37
2022/05/22 01:42:38;;;;;;;3.72;2.75;;;;;;;24.13;40.94;99098.47;5052464;28;20389;-37
2022/05/22 01:45:06;;;;;;;4.97;2.80;;;;;;;23.86;41.55;99095.88;5052836;28;20028;-37
2022/05/22 01:47:33;;;;;;;5.68;3.00;;;;;;;24.07;41.15;99091.53;5052393;28;20039;-37
2022/05/22 01:49:58;;;;;;;3.88;2.72;;;;;;;24.18;40.82;99097.56;5052695;28;20378;-37
2022/05/22 01:52:24;;;;;;;6.05;3.00;;;;;;;24.22;40.79;99092.28;5052378;28;20131;-37
2022/05/22 01:54:49;;;;;;;7.05;2.90;;;;;;;24.11;41.24;99095.25;5053143;28;20041;-37
2022/05/22 01:57:15;;;;;;;3.05;2.63;;;;;;;23.97;41.15;99089.88;5052360;28;20058;-37
2022/05/22 01:59:40;;;;;;;5.10;2.90;;;;;;;23.65;42.35;99096.28;5042661;28;20079;-37
2022/05/22 02:02:06;;;;;;;4.35;3.10;;;;;;;23.70;43.16;99100.78;5039368;28;20021;-37
2022/05/22 02:04:32;;;;;;;5.80;2.72;;;;;;;23.71;43.76;99096.97;5041128;28;20092;-37
2022/05/22 02:09:42;;;;;;;8.60;3.35;;;;;;;23.65;45.20;99096.28;5044153;28;20028;-37
2022/05/22 02:12:08;;;;;;;6.00;3.40;;;;;;;23.48;44.81;99107.00;5033502;28;20444;-37
2022/05/22 02:14:33;;;;;;;3.40;2.75;;;;;;;23.61;44.37;99111.59;5031859;28;20028;-37
2022/05/22 02:16:58;;;;;;;6.38;3.05;;;;;;;23.28;44.47;99109.00;5032289;28;20053;-37
2022/05/22 02:19:24;;;;;;;4.85;3.08;;;;;;;23.28;43.98;99097.34;5032266;28;20025;-37
2022/05/22 02:21:50;;;;;;;5.70;2.90;;;;;;;23.26;43.89;99110.44;5032574;28;20018;-37
2022/05/22 02:24:16;;;;;;;6.70;3.10;;;;;;;23.41;43.36;99110.13;5032061;28;20095;-37
2022/05/22 02:26:42;;;;;;;6.40;2.72;;;;;;;23.34;43.38;99107.00;5031695;28;20098;-37
2022/05/22 02:29:07;;;;;;;3.63;2.90;;;;;;;23.29;43.28;99107.13;5031830;28;20018;-38
2022/05/22 02:31:33;;;;;;;4.82;3.20;;;;;;;23.53;42.58;99091.41;5032414;28;20022;-37
2022/05/22 02:33:58;;;;;;;5.07;3.28;;;;;;;23.56;42.67;99107.06;5032066;28;20469;-38
2022/05/22 02:36:24;;;;;;;3.20;2.88;;;;;;;23.67;42.21;99099.50;5045770;28;20033;-38
2022/05/22 02:38:49;;;;;;;4.47;2.90;;;;;;;23.62;42.55;99099.59;5051759;28;20067;-38
2022/05/22 02:41:16;;;;;;;3.90;3.08;;;;;;;23.30;43.12;99100.56;5051448;28;20029;-38
2022/05/22 02:43:42;;;;;;;5.45;3.10;;;;;;;23.30;43.50;99100.56;5050932;28;20017;-38
2022/05/22 02:46:14;;;;;;;5.57;2.95;;;;;;;23.61;42.47;99101.53;5050653;28;20041;-38
2022/05/22 02:48:40;;;;;;;7.63;3.10;;;;;;;23.49;42.94;99103.16;5050723;28;20102;-36
2022/05/22 02:51:06;;;;;;;11.88;3.85;;;;;;;23.31;43.38;99094.06;5051191;28;20029;-38
2022/05/22 02:53:33;;;;;;;6.00;3.15;;;;;;;23.48;43.19;99096.94;5050005;28;20412;-37
2022/05/22 02:56:13;;;;;;;7.40;3.00;;;;;;;23.38;43.39;99099.84;5051076;28;20583;-38
2022/05/22 02:58:39;;;;;;;10.80;3.30;;;;;;;23.45;43.16;99100.25;5051238;28;20029;-36
2022/05/22 03:01:05;;;;;;;7.30;3.40;;;;;;;23.26;43.42;99094.94;5040812;28;20041;-36
2022/05/22 03:03:31;;;;;;;5.50;3.28;;;;;;;23.31;43.65;99113.84;5031402;28;20034;-36
2022/05/22 03:08:41;;;;;;;6.10;3.20;;;;;;;23.50;43.44;99108.28;5030391;28;20028;-36
2022/05/22 03:11:07;;;;;;;4.82;3.40;;;;;;;23.36;43.90;99111.03;5030804;28;20418;-37
2022/05/22 03:13:33;;;;;;;6.35;3.40;;;;;;;23.15;44.51;99116.06;5030467;28;20036;-37
2022/05/22 03:15:59;;;;;;;5.50;3.47;;;;;;;23.45;43.80;99113.81;5030835;28;20021;-37
2022/05/22 03:18:25;;;;;;;7.15;3.78;;;;;;;23.41;43.67;99116.34;5030438;28;20091;-37
2022/05/22 03:20:50;;;;;;;3.75;3.45;;;;;;;23.51;43.50;99123.47;5030388;28;20033;-37
2022/05/22 03:23:16;;;;;;;6.18;3.67;;;;;;;23.53;43.78;99123.97;5030866;28;20033;-38
2022/05/22 03:25:44;;;;;;;5.95;3.40;;;;;;;23.54;43.77;99120.16;5030551;28;20378;-38
2022/05/22 03:28:10;;;;;;;4.85;3.30;;;;;;;23.52;43.95;99124.28;5030513;28;20024;-37
2022/05/22 03:30:36;;;;;;;4.63;3.22;;;;;;;23.50;44.11;99124.59;5029944;28;20060;-36
2022/05/22 03:33:02;;;;;;;7.32;3.60;;;;;;;23.41;44.30;99116.34;5037231;28;20040;-37
2022/05/22 03:35:28;;;;;;;8.90;3.60;;;;;;;23.54;43.98;99122.06;5043977;28;20021;-37
2022/05/22 03:37:53;;;;;;;7.43;3.60;;;;;;;23.35;44.67;99122.19;5031053;28;20083;-37
2022/05/22 03:40:19;;;;;;;5.50;3.50;;;;;;;23.30;45.06;99125.78;5031755;28;20025;-38
2022/05/22 03:42:44;;;;;;;7.88;3.85;;;;;;;23.44;44.53;99131.22;5050425;28;20448;-37
2022/05/22 03:45:11;;;;;;;9.05;3.88;;;;;;;23.34;45.04;99134.13;5050389;28;20107;-37
2022/05/22 03:47:38;;;;;;;10.43;3.92;;;;;;;23.63;44.36;99128.38;5050417;28;20021;-37
2022/05/22 03:50:06;;;;;;;7.13;3.53;;;;;;;23.36;45.05;99131.94;5050307;28;20115;-37
2022/05/22 03:52:38;;;;;;;4.70;3.53;;;;;;;23.64;44.37;99124.53;5050596;28;20040;-37
2022/05/22 03:55:07;;;;;;;5.95;3.10;;;;;;;23.74;44.65;99124.34;5050835;28;20035;-37
2022/05/22 03:57:32;;;;;;;;;;;;;;;23.64;44.07;99127.25;5050970;28;20115;-37
2022/05/22 03:59:58;;;;;;;5.47;3.40;;;;;;;23.56;43.79;99117.13;5050259;28;19999;-37
2022/05/22 04:02:23;;;;;;;9.63;3.58;;;;;;;23.45;44.05;99127.41;5050422;28;20032;-36
2022/05/22 04:04:49;;;;;;;6.30;3.28;;;;;;;23.65;43.49;99122.66;5050423;28;20021;-37
2022/05/22 04:07:16;;;;;;;7.63;3.40;;;;;;;23.91;43.03;99141.91;5050550;28;20064;-38
2022/05/22 04:09:42;;;;;;;4.05;3.22;;;;;;;23.90;42.67;99138.41;5050700;28;20056;-38
2022/05/22 04:12:09;;;;;;;4.68;3.35;;;;;;;23.75;43.26;99127.84;5050272;28;20064;-38
2022/05/22 04:14:35;;;;;;;10.95;4.00;;;;;;;24.01;42.67;99133.53;5050178;28;20033;-38
2022/05/22 04:17:01;;;;;;;9.95;4.50;;;;;;;23.90;43.00;99143.03;5049985;28;20028;-38
2022/05/22 04:19:27;;;;;;;5.40;3.50;;;;;;;23.78;43.13;99144.38;5050195;28;20021;-38
2022/05/22 04:21:52;;;;;;;6.88;4.53;;;;;;;23.65;43.61;99134.31;5050105;28;20065;-38
2022/05/22 04:27:06;;;;;;;5.25;3.30;;;;;;;23.56;43.30;99141.56;5052573;28;20102;-38
2022/05/22 04:29:32;;;;;;;;;;;;;;;23.58;43.11;99147.50;5054560;28;20397;-38
2022/05/22 04:31:57;;;;;;;5.30;4.03;;;;;;;23.99;42.04;99152.06;5053951;28;19919;-37
2022/05/22 04:34:23;;;;;;;4.65;3.92;;;;;;;24.24;41.52;99147.94;5054074;28;20111;-38
2022/05/22 04:36:48;;;;;;;6.03;3.25;;;;;;;24.08;41.73;99146.69;5036073;28;20029;-38
2022/05/22 04:39:13;;;;;;;5.57;3.03;;;;;;;24.16;41.12;99149.50;5034210;28;20094;-38
2022/05/22 04:41:39;;;;;;;4.32;3.10;;;;;;;24.12;41.22;99151.22;5034044;28;20055;-36
2022/05/22 04:44:05;;;;;;;4.65;2.97;;;;;;;24.24;41.26;99147.94;5033904;28;20036;-37
2022/05/22 04:46:30;;;;;;;6.22;3.17;;;;;;;24.19;40.86;99161.66;5033590;28;20033;-37
2022/05/22 04:48:56;;;;;;;6.65;3.15;;;;;;;24.29;40.63;99153.25;5034001;28;20033;-36
2022/05/22 04:51:21;;;;;;;8.70;3.20;;;;;;;24.28;40.62;99157.09;5034290;28;20025;-37
2022/05/22 04:53:47;;;;;;;6.88;3.08;;;;;;;24.48;41.01;99154.97;5033925;28;20037;-36
2022/05/22 04:56:12;;;;;;;9.23;3.00;;;;;;;24.63;39.72;99153.81;5033772;28;20022;-37
2022/05/22 04:58:38;;;;;;;4.93;3.10;;;;;;;24.67;39.12;99158.31;5033818;28;20032;-37
2022/05/22 05:01:08;;;;;;;4.75;3.30;;;;;;;24.68;39.41;99162.66;5033633;28;20478;-36
2022/05/22 05:03:33;;;;;;;3.40;3.00;;;;;;;24.93;38.42;99171.28;5033490;28;20091;-36
2022/05/22 05:05:59;;;;;;;13.02;8.05;;;;;;;24.94;38.51;99162.81;5033421;28;20033;-36
2022/05/22 05:08:26;;;;;;;8.45;3.35;;;;;;;25.18;38.07;99167.84;5033256;28;20036;-38
2022/05/22 05:10:52;;;;;;;6.32;3.17;;;;;;;25.06;37.84;99153.25;5033413;28;20051;-37
2022/05/22 05:13:19;;;;;;;4.40;2.90;;;;;;;25.12;37.63;99173.75;5033462;28;20117;-37
2022/05/22 05:15:44;;;;;;;4.68;2.90;;;;;;;25.09;37.81;99168.94;5032814;28;20030;-37
2022/05/22 05:18:10;;;;;;;4.60;2.85;;;;;;;25.13;37.63;99172.63;5033121;28;20021;-37
2022/05/22 05:20:37;;;;;;;4.05;2.70;;;;;;;25.31;37.06;99159.94;5033266;28;20021;-37
2022/05/22 05:23:06;;;;;;;5.53;3.70;;;;;;;25.22;37.55;99167.22;5033424;28;20026;-37
2022/05/22 05:25:31;;;;;;;7.20;5.20;;;;;;;25.71;36.71;99177.00;5033106;28;20029;-37
2022/05/22 05:27:57;;;;;;;7.55;3.42;;;;;;;26.04;36.71;99170.34;5036740;28;20459;-37
2022/05/22 05:30:22;;;;;;;7.40;2.97;;;;;;;26.13;36.11;99165.69;5041354;28;20060;-36
2022/05/22 05:32:53;;;;;;;5.57;2.90;;;;;;;26.19;35.97;99163.59;5039658;28;20057;-37
2022/05/22 05:35:19;;;;;;;8.10;3.28;;;;;;;25.84;36.23;99167.09;5040291;28;20410;-37
2022/05/22 05:37:46;;;;;;;5.47;2.67;;;;;;;25.89;35.13;99169.66;5038990;28;20076;-38
2022/05/22 05:40:12;;;;;;;5.00;2.67;;;;;;;25.94;34.99;99161.34;5042270;28;20107;-37
2022/05/22 05:42:39;;;;;;;7.82;3.08;;;;;;;25.61;35.66;99151.97;5042493;28;20091;-38
2022/05/22 05:45:06;;;;;;;13.23;7.60;;;;;;;26.00;35.10;99155.75;5041849;28;20116;-38
2022/05/22 05:47:32;;;;;;;5.43;3.25;;;;;;;26.85;34.24;99160.63;5041779;28;20021;-37
2022/05/22 05:49:57;;;;;;;3.88;2.83;;;;;;;27.34;33.15;99161.09;5037868;28;20044;-37
2022/05/22 05:52:23;;;;;;;4.88;3.00;;;;;;;27.96;32.30;99154.13;5040211;28;20029;-51
2022/05/22 05:54:48;;;;;;;5.10;2.70;;;;;;;28.93;31.71;99149.34;5042334;28;20029;-50
2022/05/22 05:57:15;;;;;;;7.00;3.47;;;;;;;29.04;30.72;99153.22;5039855;28;20025;-51
2022/05/22 05:59:41;;;;;;;5.13;2.72;;;;;;;29.44;28.94;99160.00;5044070;28;20100;-51
2022/05/22 06:02:10;;;;;;;5.32;3.00;;;;;;;29.87;28.85;99161.31;5031450;28;20029;-49
2022/05/22 06:04:36;;;;;;;5.93;3.28;;;;;;;30.41;27.93;99151.91;5039410;28;20035;-48
2022/05/22 06:07:02;;;;;;;7.60;2.97;;;;;;;30.82;27.56;99155.31;5040824;28;20030;-48
2022/05/22 06:09:28;;;;;;;5.97;2.80;;;;;;;29.84;28.49;99155.75;5045346;28;20037;-50
2022/05/22 06:11:53;;;;;;;4.20;2.42;;;;;;;30.56;27.49;99164.06;5051167;28;20475;-47
2022/05/22 06:14:19;;;;;;;4.90;2.58;;;;;;;30.88;27.35;99164.91;5051383;28;20385;-49
2022/05/22 06:16:44;;;;;;;4.95;2.30;;;;;;;30.72;27.08;99170.34;5051038;28;20037;-49
2022/05/22 06:19:09;;;;;;;5.85;2.40;;;;;;;30.94;26.17;99171.75;5051267;28;20025;-51
2022/05/22 06:21:35;;;;;;;5.18;2.58;;;;;;;30.76;26.07;99167.72;5051291;28;20032;-48
2022/05/22 06:24:00;;;;;;;6.20;2.20;;;;;;;30.51;26.91;99172.53;5051306;28;20435;-47
2022/05/22 06:26:26;;;;;;;10.55;2.53;;;;;;;30.46;26.43;99170.84;5050570;28;20033;-47
2022/05/22 06:28:52;;;;;;;7.38;2.60;;;;;;;30.11;27.21;99181.59;5050789;28;20032;-47
2022/05/22 06:31:17;;;;;;;5.03;2.20;;;;;;;31.16;26.03;99175.00;5011648;28;1148078;-50
2022/05/22 06:33:43;;;;;;;8.45;2.83;;;;;;;31.45;25.64;99184.72;5052084;28;20365;-48
2022/05/22 06:36:12;;;;;;;3.70;2.70;;;;;;;31.73;25.83;99175.56;5039266;28;20497;-47
2022/05/22 06:41:22;;;;;;;7.28;2.78;;;;;;;31.46;25.03;99169.06;5031181;28;20484;-50
2022/05/22 06:43:51;;;;;;;6.68;2.33;;;;;;;31.80;25.00;99161.19;5031466;28;20029;-50
2022/05/22 06:46:18;;;;;;;3.80;1.80;;;;;;;31.70;24.84;99173.53;5031278;28;20401;-47
2022/05/22 06:48:43;;;;;;;3.40;1.98;;;;;;;31.10;25.35;99181.94;5034762;28;20021;-47
2022/05/22 06:51:09;;;;;;;6.03;2.03;;;;;;;30.81;25.39;99175.69;5051502;28;20055;-48
2022/05/22 06:53:34;;;;;;;6.40;2.20;;;;;;;30.38;25.47;99178.06;5051913;28;20462;-47
2022/05/22 06:56:00;;;;;;;4.85;2.28;;;;;;;30.47;25.31;99179.88;5051485;28;20033;-47
2022/05/22 06:58:25;;;;;;;7.13;2.30;;;;;;;30.00;25.45;99179.31;5051123;28;20028;-49
2022/05/22 07:00:54;;;;;;;3.88;1.92;;;;;;;29.74;26.12;99176.19;5051280;28;20025;-47
2022/05/22 07:03:20;;;;;;;;;;;;;;;29.67;27.13;99181.44;5040311;28;20485;-49
2022/05/22 07:05:45;;;;;;;4.07;2.08;;;;;;;29.38;26.46;99183.31;5031426;28;19912;-47
2022/05/22 07:08:11;;;;;;;5.35;2.58;;;;;;;28.93;27.05;99179.44;5030644;28;20068;-48
2022/05/22 07:13:21;;;;;;;4.78;2.35;;;;;;;28.74;26.93;99184.66;5030697;28;20035;-46
2022/05/22 07:16:00;;;;;;;4.70;2.20;;;;;;;28.83;27.34;99179.91;5030400;28;20135;-47
2022/05/22 07:18:26;;;;;;;3.97;2.70;;;;;;;29.25;27.65;99185.22;5030540;28;20033;-49
2022/05/22 07:20:51;;;;;;;3.78;2.40;;;;;;;29.19;27.66;99192.88;5030691;28;20036;-47
2022/05/22 07:23:16;;;;;;;4.78;2.00;;;;;;;29.07;27.44;99186.53;5047624;28;20365;-49
2022/05/22 07:25:42;;;;;;;8.50;2.35;;;;;;;29.35;27.96;99195.72;5050809;28;20147;-48
2022/05/22 07:28:07;;;;;;;4.88;2.00;;;;;;;28.73;27.63;99172.94;5049575;28;20020;-48
2022/05/22 07:30:33;;;;;;;5.97;2.63;;;;;;;29.09;27.49;99182.31;5050064;28;20112;-48
2022/05/22 07:32:59;;;;;;;4.85;2.55;;;;;;;28.89;28.25;99181.28;5050039;28;20356;-48
2022/05/22 07:35:24;;;;;;;2.42;2.10;;;;;;;28.87;27.92;99177.28;5049157;28;20029;-47
2022/05/22 07:37:50;;;;;;;4.75;2.45;;;;;;;28.78;28.67;99178.16;5049157;28;20041;-37
2022/05/22 07:40:16;;;;;;;3.92;2.53;;;;;;;28.98;27.79;99167.50;5044182;28;20054;-47
2022/05/22 07:42:41;;;;;;;29.42;21.40;;;;;;;29.51;28.14;99168.44;5042712;28;20135;-48
2022/05/22 07:45:07;;;;;;;7.25;3.10;;;;;;;29.79;27.33;99170.47;5039691;28;20031;-49
2022/05/22 07:47:32;;;;;;;3.70;2.05;;;;;;;29.54;27.37;99167.75;5035566;28;20064;-47
2022/05/22 07:50:16;;;;;;;3.72;1.92;;;;;;;29.24;28.17;99164.44;5046047;28;20560;-50
2022/05/22 07:52:42;;;;;;;4.90;2.15;;;;;;;28.95;28.50;99158.00;5036755;28;20086;-48
2022/05/22 07:55:14;;;;;;;6.75;2.50;;;;;;;29.32;28.94;99162.72;5038825;28;20530;-49
2022/05/22 07:57:44;;;;;;;5.15;2.20;;;;;;;29.59;28.55;99156.56;5044484;28;20444;-50
2022/05/22 08:00:15;;;;;;;7.70;2.05;;;;;;;29.46;28.65;99149.50;5032652;28;20021;-48
2022/05/22 08:02:42;;;;;;;8.23;1.95;;;;;;;29.39;28.10;99155.53;5041931;28;20025;-50
2022/05/22 08:05:09;;;;;;;2.53;2.00;;;;;;;29.82;27.91;99150.59;5039703;28;20218;-38
2022/05/22 08:07:35;;;;;;;6.43;2.15;;;;;;;29.32;28.48;99149.84;5034863;28;20486;-37
2022/05/22 08:10:01;;;;;;;10.27;2.17;;;;;;;29.61;28.40;99156.22;5045830;28;20426;-37
2022/05/22 08:12:27;;;;;;;4.72;2.00;;;;;;;30.08;27.64;99150.16;5034348;28;20013;-38
2022/05/22 08:14:53;;;;;;;6.18;2.00;;;;;;;30.23;27.60;99145.09;5041390;28;20535;-39
2022/05/22 08:17:21;;;;;;;5.45;2.08;;;;;;;30.20;27.46;99146.59;5035956;28;20105;-37
2022/05/22 08:19:48;;;;;;;9.30;4.95;;;;;;;29.07;28.74;99140.78;5030268;28;20022;-48
2022/05/22 08:22:15;;;;;;;3.35;2.40;;;;;;;29.32;28.58;99143.56;5041485;28;20052;-47
2022/05/22 08:24:41;;;;;;;5.13;1.60;;;;;;;29.59;27.39;99139.31;5042790;28;20048;-48
2022/05/22 08:27:06;;;;;;;5.05;1.73;;;;;;;29.58;27.56;99138.50;5039096;28;20393;-50
2022/05/22 08:29:32;;;;;;;6.72;1.98;;;;;;;29.47;27.33;99142.84;5035312;28;20524;-51
2022/05/22 08:31:57;;;;;;;5.68;1.92;;;;;;;29.05;27.19;99134.84;5045564;28;20399;-48
2022/05/22 08:34:23;;;;;;;6.28;1.95;;;;;;;29.04;27.17;99136.00;5033569;28;20029;-47
2022/05/22 08:36:51;;;;;;;5.18;1.90;;;;;;;29.73;26.90;99142.50;5038895;28;20040;-48
2022/05/22 08:39:18;;;;;;;5.75;1.90;;;;;;;29.73;27.29;99131.53;5037046;28;20028;-48
2022/05/22 08:41:47;;;;;;;4.53;1.80;;;;;;;29.35;27.60;99135.44;5044650;28;20025;-46
2022/05/22 08:44:16;;;;;;;4.47;1.70;;;;;;;29.92;26.80;99136.41;5032475;28;20384;-47
2022/05/22 08:47:11;;;;;;;8.60;1.98;;;;;;;29.85;26.72;99127.16;5041692;28;20022;-47
2022/05/22 08:49:51;;;;;;;5.10;1.63;;;;;;;29.81;26.91;99132.53;5038032;28;20094;-47
2022/05/22 08:52:17;;;;;;;5.53;1.90;;;;;;;29.82;26.24;99125.91;5031437;28;20437;-50
2022/05/22 08:54:48;;;;;;;3.22;1.95;;;;;;;30.21;25.98;99116.06;5041885;28;20088;-47
2022/05/22 09:00:09;;;;;;;3.30;1.80;;;;;;;30.62;24.64;99115.97;5032279;28;20048;-46
2022/05/22 09:02:52;;;;;;;4.50;1.90;;;;;;;30.29;24.89;99105.25;5042671;28;20492;-47
2022/05/22 09:05:23;;;;;;;3.45;1.70;;;;;;;30.29;24.69;99111.56;5041018;28;20043;-51
2022/05/22 09:08:08;;;;;;;5.50;1.70;;;;;;;30.38;24.11;99114.16;5032816;28;20111;-48
2022/05/22 09:10:37;;;;;;;7.55;1.60;;;;;;;30.46;23.84;99115.94;5034457;28;20033;-47
2022/05/22 09:13:05;;;;;;;8.95;2.00;;;;;;;30.60;24.19;99104.56;5041402;28;20099;-48
2022/05/22 09:15:49;;;;;;;4.25;1.80;;;;;;;31.16;22.93;99104.38;5046434;28;20072;-49
2022/05/22 09:18:40;;;;;;;5.13;1.70;;;;;;;31.43;22.77;99103.78;5035538;28;20706;-47
2022/05/22 09:21:08;;;;;;;4.35;1.60;;;;;;;31.30;22.62;99103.09;5041641;28;20034;-47
2022/05/22 09:23:54;;;;;;;3.35;1.80;;;;;;;30.84;23.31;99100.81;5032177;28;20509;-48
2022/05/22 09:27:00;;;;;;;3.50;1.70;;;;;;;30.98;22.53;99090.22;5035977;28;20108;-51
2022/05/22 09:29:40;;;;;;;4.13;1.85;;;;;;;30.76;23.67;99094.34;5034956;28;20045;-48
2022/05/22 09:32:09;;;;;;;2.50;1.70;;;;;;;30.96;23.05;99078.78;5048133;28;20170;-50
2022/05/22 09:34:47;;;;;;;6.30;2.00;;;;;;;31.04;23.28;99082.50;5038032;28;20036;-36
2022/05/22 09:37:33;;;;;;;5.40;1.83;;;;;;;31.29;22.81;99079.53;5042890;28;20041;-36
2022/05/22 09:40:02;;;;;;;2.75;1.73;;;;;;;32.10;23.04;99074.19;5050519;28;20040;-36
2022/05/22 09:43:06;;;;;;;4.70;1.60;;;;;;;32.03;22.87;99065.81;5036306;28;20040;-48
2022/05/22 09:46:09;;;;;;;2.72;1.90;;;;;;;32.41;22.77;99069.66;5036352;28;20039;-51
2022/05/22 09:48:59;;;;;;;9.48;2.10;;;;;;;31.76;23.19;99060.16;5031340;28;20093;-48
2022/05/22 09:51:30;;;;;;;;;;;;;;;32.38;22.06;99053.06;5044804;28;20037;-48
2022/05/22 09:54:20;;;;;;;5.30;1.80;;;;;;;32.23;22.53;99049.25;5035076;28;20377;-50
2022/05/22 09:56:59;;;;;;;6.13;2.20;;;;;;;31.97;22.74;99047.97;5043856;28;20413;-47
2022/05/22 09:59:31;;;;;;;;;;;;;;;31.69;22.75;99051.75;5035788;28;20065;-48
2022/05/22 10:02:02;;;;;;;4.80;1.73;;;;;;;31.00;22.99;99048.66;5032443;28;19912;-47
2022/05/22 10:04:58;;;;;;;3.53;1.80;;;;;;;31.41;22.73;99060.16;5046183;28;20025;-48
2022/05/22 10:07:33;;;;;;;7.57;1.65;;;;;;;32.28;22.16;99063.50;5044058;28;20136;-51
2022/05/22 10:10:14;;;;;;;3.72;1.83;;;;;;;32.62;22.06;99065.69;5034786;28;20029;-46
2022/05/22 10:12:57;;;;;;;5.60;2.50;;;;;;;31.74;23.09;99067.19;5044281;28;20503;-46
2022/05/22 10:15:26;;;;;;;3.65;1.80;;;;;;;31.17;23.24;99062.00;5043957;28;20033;-46
2022/05/22 10:18:01;;;;;;;7.60;1.80;;;;;;;31.29;23.71;99069.34;5034519;28;20056;-49
2022/05/22 10:20:51;;;;;;;4.32;1.70;;;;;;;31.51;23.73;99058.81;5037507;28;20119;-47
2022/05/22 10:23:20;;;;;;;4.88;1.75;;;;;;;31.58;23.37;99077.44;5042559;28;20135;-47
2022/05/22 10:25:45;;;;;;;6.55;3.78;;;;;;;31.67;23.62;99062.31;5050987;28;20723;-48
2022/05/22 10:28:16;;;;;;;2.63;2.10;;;;;;;31.22;23.87;99060.94;5051060;28;20112;-48
2022/05/22 10:30:54;;;;;;;12.10;2.00;;;;;;;30.57;24.72;99053.88;5051216;28;20053;-48
2022/05/22 10:33:51;;;;;;;4.63;1.88;;;;;;;30.66;24.51;99058.41;5051552;28;20400;-48
2022/05/22 10:36:25;;;;;;;3.25;1.70;;;;;;;31.32;24.10;99054.06;5037146;28;20037;-49
2022/05/22 10:39:00;;;;;;;3.20;1.90;;;;;;;31.84;23.68;99054.78;5031911;28;20056;-50
2022/05/22 10:44:22;;;;;;;3.70;1.80;;;;;;;31.50;24.34;99063.53;5031736;28;20044;-48
2022/05/22 10:46:52;;;;;;;12.52;2.10;;;;;;;31.14;22.10;99053.69;5038559;28;20177;-46
2022/05/22 10:49:20;;;;;;;4.50;1.60;;;;;;;31.18;22.37;99047.09;5048358;28;20029;-47
2022/05/22 10:52:01;;;;;;;5.47;1.70;;;;;;;31.35;21.85;99045.13;5038913;28;20033;-50
2022/05/22 10:54:32;;;;;;;6.10;1.90;;;;;;;31.77;21.50;99034.22;5041574;28;20033;-50
2022/05/22 10:57:13;;;;;;;2.47;1.40;;;;;;;31.46;22.38;99042.59;5039843;28;20110;-48
2022/05/22 10:59:38;;;;;;;2.80;1.60;;;;;;;31.71;22.21;99030.19;5040605;28;20025;-49
2022/05/22 11:02:05;;;;;;;6.15;1.60;;;;;;;32.05;22.05;99021.44;5043348;28;20025;-47
2022/05/22 11:04:40;;;;;;;4.05;1.67;;;;;;;32.36;22.04;99022.34;5041969;28;20027;-49
2022/05/22 11:07:07;;;;;;;4.38;1.90;;;;;;;32.85;21.23;99024.34;5041245;28;20103;-51
2022/05/22 11:09:43;;;;;;;2.75;1.55;;;;;;;33.01;21.87;99022.22;5040176;28;20025;-48
2022/05/22 11:12:12;;;;;;;4.80;1.80;;;;;;;33.00;22.34;99015.13;5041346;28;20691;-50
2022/05/22 11:14:39;;;;;;;3.22;1.70;;;;;;;32.71;23.10;99020.22;5041821;28;20045;-48
2022/05/22 11:17:14;;;;;;;2.70;1.90;;;;;;;32.41;23.61;99003.56;5038939;28;20132;-51
2022/05/22 11:19:42;;;;;;;2.22;1.70;;;;;;;32.89;23.39;99006.69;5038916;28;20040;-49
2022/05/22 11:22:32;;;;;;;3.55;1.58;;;;;;;32.97;23.35;99004.84;5039546;28;20444;-51
2022/05/22 11:25:42;;;;;;;3.60;1.80;;;;;;;33.28;23.28;98998.22;5040066;28;20047;-48
2022/05/22 11:28:10;;;;;;;2.83;1.73;;;;;;;33.54;22.84;98995.78;5036476;28;20039;-49
2022/05/22 11:30:52;;;;;;;7.05;1.80;;;;;;;33.20;22.58;98987.47;5040418;28;20056;-50
2022/05/22 11:33:48;;;;;;;3.20;1.63;;;;;;;33.60;22.10;98983.22;5038868;28;20102;-48
2022/05/22 11:36:22;;;;;;;4.28;1.80;;;;;;;33.52;22.45;98979.59;5029717;28;20029;-50
2022/05/22 11:39:03;;;;;;;5.03;1.70;;;;;;;33.26;22.28;98986.78;5028673;28;20022;-47
2022/05/22 11:41:35;;;;;;;6.97;1.90;;;;;;;32.90;22.94;98974.44;5030560;28;20025;-50
2022/05/22 11:44:34;;;;;;;2.97;1.60;;;;;;;33.42;22.44;98983.03;5030721;28;20079;-50
2022/05/22 11:47:30;;;;;;;2.60;1.73;;;;;;;33.27;22.39;98980.09;5029983;28;20084;-48
2022/05/22 11:50:30;;;;;;;3.33;1.70;;;;;;;33.57;21.33;98971.00;5029715;28;20164;-50
2022/05/22 11:53:17;;;;;;;3.23;1.93;;;;;;;32.56;22.38;98957.81;5030084;28;20033;-48
2022/05/22 11:56:02;;;;;;;3.22;1.90;;;;;;;31.72;23.03;98956.72;5030140;28;20022;-48
2022/05/22 11:58:34;;;;;;;5.10;1.65;;;;;;;31.63;23.82;98967.97;5029968;28;20662;-50
2022/05/22 12:01:13;;;;;;;5.65;2.05;;;;;;;31.29;24.51;98959.41;5029734;28;20029;-47
2022/05/22 12:03:57;;;;;;;;;;;;;;;32.10;23.84;98952.31;5030521;28;20551;-49
2022/05/22 12:06:40;;;;;;;4.05;2.08;;;;;;;32.13;23.63;98951.59;5030151;28;20084;-50
2022/05/22 12:09:23;;;;;;;5.32;1.90;;;;;;;31.79;24.12;98961.56;5030450;28;20026;-50
2022/05/22 12:12:08;;;;;;;6.78;1.80;;;;;;;32.00;24.87;98952.91;5029685;28;20026;-50